sensor_id;sensor_type;location;lat;lon;timestamp;P1;durP1;ratioP1;P2;durP2;ratioP2
8488;SDS011;4281;45.772;12.852;2023-02-20T07:25:22;44.53;;;35.83;;
8488;SDS011;4281;45.772;12.852;2023-02-20T07:32:56;43.97;;;35.23;;
8488;SDS011;4281;45.772;12.852;2023-02-20T07:36:18;47.77;;;36.97;;
8488;SDS011;4281;45.772;12.852;2023-02-20T07:39:11;42.47;;;35.50;;
8488;SDS011;4281;45.772;12.852;2023-02-20T07:42:26;39.13;;;33.07;;
8488;SDS011;4281;45.772;12.852;2023-02-20T07:44:53;40.10;;;33.87;;
8488;SDS011;4281;45.772;12.852;2023-02-20T07:47:21;41.00;;;34.90;;
8488;SDS011;4281;45.772;12.852;2023-02-20T07:49:49;39.23;;;32.30;;
8488;SDS011;4281;45.772;12.852;2023-02-20T07:52:17;36.90;;;31.30;;
8488;SDS011;4281;45.772;12.852;2023-02-20T07:54:45;34.50;;;30.10;;
8488;SDS011;4281;45.772;12.852;2023-02-20T07:57:13;32.57;;;27.00;;
8488;SDS011;4281;45.772;12.852;2023-02-20T07:59:43;32.70;;;26.37;;
8488;SDS011;4281;45.772;12.852;2023-02-20T08:02:11;28.07;;;23.57;;
8488;SDS011;4281;45.772;12.852;2023-02-20T08:04:39;25.33;;;22.40;;
8488;SDS011;4281;45.772;12.852;2023-02-20T08:07:06;24.50;;;20.57;;
8488;SDS011;4281;45.772;12.852;2023-02-20T08:09:34;24.17;;;20.20;;
8488;SDS011;4281;45.772;12.852;2023-02-20T08:12:02;25.57;;;19.07;;
8488;SDS011;4281;45.772;12.852;2023-02-20T08:14:31;21.93;;;18.40;;
8488;SDS011;4281;45.772;12.852;2023-02-20T08:17:00;23.20;;;18.47;;
8488;SDS011;4281;45.772;12.852;2023-02-20T08:19:28;19.87;;;16.63;;
8488;SDS011;4281;45.772;12.852;2023-02-20T08:21:56;20.73;;;17.53;;
8488;SDS011;4281;45.772;12.852;2023-02-20T08:24:24;19.93;;;17.23;;
8488;SDS011;4281;45.772;12.852;2023-02-20T08:26:51;20.53;;;17.53;;
8488;SDS011;4281;45.772;12.852;2023-02-20T08:29:19;19.57;;;16.47;;
8488;SDS011;4281;45.772;12.852;2023-02-20T08:31:47;21.43;;;18.53;;
8488;SDS011;4281;45.772;12.852;2023-02-20T08:34:16;18.53;;;16.40;;
8488;SDS011;4281;45.772;12.852;2023-02-20T08:36:44;21.87;;;17.67;;
8488;SDS011;4281;45.772;12.852;2023-02-20T08:39:12;20.07;;;17.80;;
8488;SDS011;4281;45.772;12.852;2023-02-20T08:41:43;21.07;;;17.47;;
8488;SDS011;4281;45.772;12.852;2023-02-20T08:44:12;18.37;;;15.83;;
8488;SDS011;4281;45.772;12.852;2023-02-20T08:46:44;18.87;;;16.77;;
8488;SDS011;4281;45.772;12.852;2023-02-20T08:49:16;20.93;;;17.13;;
8488;SDS011;4281;45.772;12.852;2023-02-20T08:51:52;17.27;;;15.40;;
8488;SDS011;4281;45.772;12.852;2023-02-20T08:54:21;17.50;;;15.70;;
8488;SDS011;4281;45.772;12.852;2023-02-20T08:56:49;16.97;;;14.50;;
8488;SDS011;4281;45.772;12.852;2023-02-20T08:59:17;16.20;;;14.47;;
8488;SDS011;4281;45.772;12.852;2023-02-20T09:01:44;17.90;;;15.03;;
8488;SDS011;4281;45.772;12.852;2023-02-20T09:04:13;17.67;;;15.10;;
8488;SDS011;4281;45.772;12.852;2023-02-20T09:06:43;17.37;;;15.07;;
8488;SDS011;4281;45.772;12.852;2023-02-20T09:09:11;16.47;;;13.93;;
8488;SDS011;4281;45.772;12.852;2023-02-20T09:11:39;16.40;;;14.33;;
8488;SDS011;4281;45.772;12.852;2023-02-20T09:14:08;17.27;;;15.47;;
8488;SDS011;4281;45.772;12.852;2023-02-20T09:16:35;18.23;;;15.60;;
8488;SDS011;4281;45.772;12.852;2023-02-20T09:19:07;18.70;;;16.07;;
8488;SDS011;4281;45.772;12.852;2023-02-20T09:21:35;16.80;;;15.03;;
8488;SDS011;4281;45.772;12.852;2023-02-20T09:24:05;18.87;;;15.00;;
8488;SDS011;4281;45.772;12.852;2023-02-20T09:26:33;17.83;;;14.77;;
8488;SDS011;4281;45.772;12.852;2023-02-20T09:29:01;17.10;;;14.40;;
8488;SDS011;4281;45.772;12.852;2023-02-20T09:31:29;15.63;;;13.53;;
8488;SDS011;4281;45.772;12.852;2023-02-20T09:33:57;17.13;;;14.17;;
8488;SDS011;4281;45.772;12.852;2023-02-20T09:36:26;15.27;;;13.67;;
8488;SDS011;4281;45.772;12.852;2023-02-20T09:38:54;17.70;;;14.97;;
8488;SDS011;4281;45.772;12.852;2023-02-20T09:41:27;15.07;;;13.47;;
8488;SDS011;4281;45.772;12.852;2023-02-20T09:44:03;15.43;;;13.93;;
8488;SDS011;4281;45.772;12.852;2023-02-20T09:46:38;16.33;;;14.30;;
8488;SDS011;4281;45.772;12.852;2023-02-20T09:49:10;16.60;;;14.47;;
8488;SDS011;4281;45.772;12.852;2023-02-20T09:51:40;17.57;;;15.73;;
8488;SDS011;4281;45.772;12.852;2023-02-20T09:54:10;16.13;;;14.43;;
8488;SDS011;4281;45.772;12.852;2023-02-20T09:56:42;15.87;;;14.17;;
8488;SDS011;4281;45.772;12.852;2023-02-20T09:59:13;17.20;;;15.40;;
8488;SDS011;4281;45.772;12.852;2023-02-20T10:01:42;16.53;;;14.70;;
8488;SDS011;4281;45.772;12.852;2023-02-20T10:04:17;15.30;;;13.67;;
8488;SDS011;4281;45.772;12.852;2023-02-20T10:06:47;15.83;;;14.13;;
8488;SDS011;4281;45.772;12.852;2023-02-20T10:09:17;15.73;;;14.00;;
8488;SDS011;4281;45.772;12.852;2023-02-20T10:11:49;15.67;;;14.07;;
8488;SDS011;4281;45.772;12.852;2023-02-20T10:14:38;15.07;;;13.53;;
8488;SDS011;4281;45.772;12.852;2023-02-20T10:17:14;14.80;;;13.30;;
8488;SDS011;4281;45.772;12.852;2023-02-20T10:19:49;16.63;;;14.93;;
8488;SDS011;4281;45.772;12.852;2023-02-20T10:22:19;15.40;;;13.90;;
8488;SDS011;4281;45.772;12.852;2023-02-20T10:25:01;15.90;;;14.30;;
8488;SDS011;4281;45.772;12.852;2023-02-20T10:27:39;16.70;;;14.27;;
8488;SDS011;4281;45.772;12.852;2023-02-20T10:30:12;14.73;;;13.20;;
8488;SDS011;4281;45.772;12.852;2023-02-20T10:32:45;15.83;;;14.20;;
8488;SDS011;4281;45.772;12.852;2023-02-20T10:35:17;16.33;;;14.63;;
8488;SDS011;4281;45.772;12.852;2023-02-20T10:37:49;16.20;;;14.50;;
8488;SDS011;4281;45.772;12.852;2023-02-20T10:40:21;14.87;;;13.30;;
8488;SDS011;4281;45.772;12.852;2023-02-20T10:42:54;14.73;;;13.30;;
8488;SDS011;4281;45.772;12.852;2023-02-20T10:45:30;16.20;;;14.60;;
8488;SDS011;4281;45.772;12.852;2023-02-20T10:48:05;16.17;;;14.47;;
8488;SDS011;4281;45.772;12.852;2023-02-20T10:50:36;16.17;;;14.47;;
8488;SDS011;4281;45.772;12.852;2023-02-20T10:53:10;15.97;;;14.30;;
8488;SDS011;4281;45.772;12.852;2023-02-20T10:55:44;15.70;;;14.10;;
8488;SDS011;4281;45.772;12.852;2023-02-20T10:58:18;19.13;;;16.40;;
8488;SDS011;4281;45.772;12.852;2023-02-20T11:00:49;18.03;;;16.13;;
8488;SDS011;4281;45.772;12.852;2023-02-20T11:03:19;18.00;;;16.20;;
8488;SDS011;4281;45.772;12.852;2023-02-20T11:05:50;16.63;;;14.93;;
8488;SDS011;4281;45.772;12.852;2023-02-20T11:08:20;17.73;;;15.83;;
8488;SDS011;4281;45.772;12.852;2023-02-20T11:10:48;17.50;;;15.60;;
8488;SDS011;4281;45.772;12.852;2023-02-20T11:13:19;17.90;;;16.10;;
8488;SDS011;4281;45.772;12.852;2023-02-20T11:15:52;18.37;;;15.87;;
8488;SDS011;4281;45.772;12.852;2023-02-20T11:18:22;19.67;;;17.67;;
8488;SDS011;4281;45.772;12.852;2023-02-20T11:20:53;20.70;;;17.77;;
8488;SDS011;4281;45.772;12.852;2023-02-20T11:23:35;20.03;;;17.90;;
8488;SDS011;4281;45.772;12.852;2023-02-20T11:29:01;20.73;;;18.27;;
8488;SDS011;4281;45.772;12.852;2023-02-20T11:31:33;20.20;;;17.83;;
8488;SDS011;4281;45.772;12.852;2023-02-20T11:34:02;20.60;;;18.37;;
8488;SDS011;4281;45.772;12.852;2023-02-20T11:36:32;20.43;;;18.23;;
8488;SDS011;4281;45.772;12.852;2023-02-20T11:39:11;20.90;;;17.70;;
8488;SDS011;4281;45.772;12.852;2023-02-20T11:41:44;25.87;;;23.07;;
8488;SDS011;4281;45.772;12.852;2023-02-20T11:44:18;23.87;;;20.77;;
8488;SDS011;4281;45.772;12.852;2023-02-20T11:47:07;24.80;;;21.60;;
8488;SDS011;4281;45.772;12.852;2023-02-20T11:49:43;23.50;;;20.93;;
8488;SDS011;4281;45.772;12.852;2023-02-20T11:52:14;22.60;;;20.30;;
8488;SDS011;4281;45.772;12.852;2023-02-20T11:54:43;22.23;;;19.80;;
8488;SDS011;4281;45.772;12.852;2023-02-20T11:57:22;21.50;;;18.73;;
8488;SDS011;4281;45.772;12.852;2023-02-20T12:00:06;22.63;;;20.23;;
8488;SDS011;4281;45.772;12.852;2023-02-20T12:02:37;23.47;;;20.50;;
8488;SDS011;4281;45.772;12.852;2023-02-20T12:05:14;23.47;;;20.40;;
8488;SDS011;4281;45.772;12.852;2023-02-20T12:07:44;23.20;;;20.73;;
8488;SDS011;4281;45.772;12.852;2023-02-20T12:10:15;22.23;;;19.83;;
8488;SDS011;4281;45.772;12.852;2023-02-20T12:12:48;22.53;;;19.80;;
8488;SDS011;4281;45.772;12.852;2023-02-20T12:15:19;24.20;;;20.80;;
8488;SDS011;4281;45.772;12.852;2023-02-20T12:17:54;23.60;;;21.10;;
8488;SDS011;4281;45.772;12.852;2023-02-20T12:20:31;23.80;;;21.33;;
8488;SDS011;4281;45.772;12.852;2023-02-20T12:23:03;22.30;;;19.40;;
8488;SDS011;4281;45.772;12.852;2023-02-20T12:25:36;22.03;;;19.73;;
8488;SDS011;4281;45.772;12.852;2023-02-20T12:28:15;21.77;;;19.37;;
8488;SDS011;4281;45.772;12.852;2023-02-20T12:30:52;20.63;;;18.43;;
8488;SDS011;4281;45.772;12.852;2023-02-20T12:33:45;22.80;;;20.37;;
8488;SDS011;4281;45.772;12.852;2023-02-20T12:36:20;24.33;;;20.80;;
8488;SDS011;4281;45.772;12.852;2023-02-20T12:38:56;24.67;;;22.07;;
8488;SDS011;4281;45.772;12.852;2023-02-20T12:41:27;23.50;;;20.80;;
8488;SDS011;4281;45.772;12.852;2023-02-20T12:44:03;23.13;;;20.63;;
8488;SDS011;4281;45.772;12.852;2023-02-20T12:46:51;25.80;;;23.00;;
8488;SDS011;4281;45.772;12.852;2023-02-20T12:49:33;36.97;;;32.93;;
8488;SDS011;4281;45.772;12.852;2023-02-20T12:52:19;34.47;;;30.87;;
8488;SDS011;4281;45.772;12.852;2023-02-20T12:54:58;32.33;;;28.80;;
8488;SDS011;4281;45.772;12.852;2023-02-20T12:57:28;29.13;;;26.03;;
8488;SDS011;4281;45.772;12.852;2023-02-20T13:00:06;26.90;;;24.00;;
8488;SDS011;4281;45.772;12.852;2023-02-20T13:02:42;26.20;;;23.33;;
8488;SDS011;4281;45.772;12.852;2023-02-20T13:05:13;24.00;;;21.40;;
8488;SDS011;4281;45.772;12.852;2023-02-20T13:07:46;24.40;;;21.80;;
8488;SDS011;4281;45.772;12.852;2023-02-20T13:10:19;25.17;;;22.00;;
8488;SDS011;4281;45.772;12.852;2023-02-20T13:12:50;25.43;;;21.97;;
8488;SDS011;4281;45.772;12.852;2023-02-20T13:15:21;23.30;;;20.57;;
8488;SDS011;4281;45.772;12.852;2023-02-20T13:17:56;23.63;;;21.17;;
8488;SDS011;4281;45.772;12.852;2023-02-20T13:20:25;24.30;;;21.60;;
8488;SDS011;4281;45.772;12.852;2023-02-20T13:22:58;22.80;;;20.37;;
8488;SDS011;4281;45.772;12.852;2023-02-20T13:25:34;23.07;;;20.60;;
8488;SDS011;4281;45.772;12.852;2023-02-20T13:28:14;22.57;;;20.17;;
8488;SDS011;4281;45.772;12.852;2023-02-20T13:31:08;22.10;;;19.80;;
8488;SDS011;4281;45.772;12.852;2023-02-20T13:33:40;23.00;;;20.50;;
8488;SDS011;4281;45.772;12.852;2023-02-20T13:36:16;22.83;;;20.40;;
8488;SDS011;4281;45.772;12.852;2023-02-20T13:41:56;22.80;;;20.33;;
8488;SDS011;4281;45.772;12.852;2023-02-20T13:44:41;22.40;;;20.07;;
8488;SDS011;4281;45.772;12.852;2023-02-20T13:52:56;25.97;;;23.27;;
8488;SDS011;4281;45.772;12.852;2023-02-20T13:55:31;23.80;;;21.30;;
8488;SDS011;4281;45.772;12.852;2023-02-20T14:00:49;23.90;;;21.40;;
8488;SDS011;4281;45.772;12.852;2023-02-20T14:03:21;24.17;;;21.63;;
8488;SDS011;4281;45.772;12.852;2023-02-20T14:06:06;24.83;;;22.23;;
8488;SDS011;4281;45.772;12.852;2023-02-20T14:08:40;24.10;;;21.53;;
8488;SDS011;4281;45.772;12.852;2023-02-20T14:11:14;24.67;;;21.20;;
8488;SDS011;4281;45.772;12.852;2023-02-20T14:13:45;26.40;;;23.63;;
8488;SDS011;4281;45.772;12.852;2023-02-20T14:16:23;26.03;;;23.23;;
8488;SDS011;4281;45.772;12.852;2023-02-20T14:18:55;24.43;;;21.80;;
8488;SDS011;4281;45.772;12.852;2023-02-20T14:21:25;24.80;;;21.87;;
8488;SDS011;4281;45.772;12.852;2023-02-20T14:23:56;26.80;;;23.67;;
8488;SDS011;4281;45.772;12.852;2023-02-20T14:26:40;25.63;;;22.83;;
8488;SDS011;4281;45.772;12.852;2023-02-20T14:29:18;26.13;;;22.97;;
8488;SDS011;4281;45.772;12.852;2023-02-20T14:31:48;28.37;;;24.40;;
8488;SDS011;4281;45.772;12.852;2023-02-20T14:34:18;30.50;;;25.93;;
8488;SDS011;4281;45.772;12.852;2023-02-20T14:36:53;29.33;;;25.63;;
8488;SDS011;4281;45.772;12.852;2023-02-20T14:39:34;29.80;;;26.13;;
8488;SDS011;4281;45.772;12.852;2023-02-20T14:42:09;30.47;;;25.67;;
8488;SDS011;4281;45.772;12.852;2023-02-20T14:44:40;26.90;;;24.00;;
8488;SDS011;4281;45.772;12.852;2023-02-20T14:47:09;28.03;;;24.47;;
8488;SDS011;4281;45.772;12.852;2023-02-20T14:49:39;26.17;;;23.30;;
8488;SDS011;4281;45.772;12.852;2023-02-20T14:52:13;27.67;;;24.30;;
8488;SDS011;4281;45.772;12.852;2023-02-20T14:54:43;27.87;;;23.37;;
8488;SDS011;4281;45.772;12.852;2023-02-20T14:57:23;25.63;;;21.87;;
8488;SDS011;4281;45.772;12.852;2023-02-20T15:00:05;25.70;;;22.83;;
8488;SDS011;4281;45.772;12.852;2023-02-20T15:02:40;26.70;;;22.80;;
8488;SDS011;4281;45.772;12.852;2023-02-20T15:05:09;24.50;;;21.87;;
8488;SDS011;4281;45.772;12.852;2023-02-20T15:07:40;27.93;;;24.47;;
8488;SDS011;4281;45.772;12.852;2023-02-20T15:10:25;27.10;;;23.10;;
8488;SDS011;4281;45.772;12.852;2023-02-20T15:13:00;28.97;;;24.47;;
8488;SDS011;4281;45.772;12.852;2023-02-20T15:15:33;31.97;;;27.27;;
8488;SDS011;4281;45.772;12.852;2023-02-20T15:18:05;33.97;;;28.17;;
8488;SDS011;4281;45.772;12.852;2023-02-20T15:20:35;33.33;;;29.30;;
8488;SDS011;4281;45.772;12.852;2023-02-20T15:23:08;31.90;;;28.47;;
8488;SDS011;4281;45.772;12.852;2023-02-20T15:25:41;33.27;;;29.03;;
8488;SDS011;4281;45.772;12.852;2023-02-20T15:28:10;33.03;;;28.97;;
8488;SDS011;4281;45.772;12.852;2023-02-20T15:30:58;33.67;;;29.33;;
8488;SDS011;4281;45.772;12.852;2023-02-20T15:33:28;35.17;;;29.43;;
8488;SDS011;4281;45.772;12.852;2023-02-20T15:35:57;31.53;;;26.43;;
8488;SDS011;4281;45.772;12.852;2023-02-20T15:38:27;32.20;;;28.37;;
8488;SDS011;4281;45.772;12.852;2023-02-20T15:40:57;32.77;;;27.93;;
8488;SDS011;4281;45.772;12.852;2023-02-20T15:43:25;32.40;;;28.07;;
8488;SDS011;4281;45.772;12.852;2023-02-20T15:46:13;31.40;;;27.07;;
8488;SDS011;4281;45.772;12.852;2023-02-20T15:48:41;32.83;;;28.10;;
8488;SDS011;4281;45.772;12.852;2023-02-20T15:51:09;34.27;;;28.20;;
8488;SDS011;4281;45.772;12.852;2023-02-20T15:53:39;33.70;;;28.93;;
8488;SDS011;4281;45.772;12.852;2023-02-20T15:56:11;33.63;;;28.40;;
8488;SDS011;4281;45.772;12.852;2023-02-20T15:58:39;33.43;;;28.10;;
8488;SDS011;4281;45.772;12.852;2023-02-20T16:01:09;34.43;;;29.67;;
8488;SDS011;4281;45.772;12.852;2023-02-20T16:03:37;33.17;;;29.37;;
8488;SDS011;4281;45.772;12.852;2023-02-20T16:06:19;35.23;;;29.80;;
8488;SDS011;4281;45.772;12.852;2023-02-20T16:08:49;34.97;;;30.17;;
8488;SDS011;4281;45.772;12.852;2023-02-20T16:11:18;37.97;;;31.83;;
8488;SDS011;4281;45.772;12.852;2023-02-20T16:13:48;37.63;;;31.73;;
8488;SDS011;4281;45.772;12.852;2023-02-20T16:16:20;37.03;;;31.93;;
8488;SDS011;4281;45.772;12.852;2023-02-20T16:18:50;41.53;;;33.30;;
8488;SDS011;4281;45.772;12.852;2023-02-20T16:21:20;42.43;;;34.57;;
8488;SDS011;4281;45.772;12.852;2023-02-20T16:23:51;42.13;;;35.37;;
8488;SDS011;4281;45.772;12.852;2023-02-20T16:26:20;45.87;;;36.17;;
8488;SDS011;4281;45.772;12.852;2023-02-20T16:28:51;43.53;;;34.13;;
8488;SDS011;4281;45.772;12.852;2023-02-20T16:31:19;42.23;;;35.23;;
8488;SDS011;4281;45.772;12.852;2023-02-20T16:33:47;44.03;;;35.87;;
8488;SDS011;4281;45.772;12.852;2023-02-20T16:36:15;46.20;;;37.43;;
8488;SDS011;4281;45.772;12.852;2023-02-20T16:38:51;45.00;;;35.77;;
8488;SDS011;4281;45.772;12.852;2023-02-20T16:41:19;44.50;;;36.03;;
8488;SDS011;4281;45.772;12.852;2023-02-20T16:43:47;43.20;;;36.20;;
8488;SDS011;4281;45.772;12.852;2023-02-20T16:46:15;44.07;;;36.93;;
8488;SDS011;4281;45.772;12.852;2023-02-20T16:48:58;43.10;;;36.20;;
8488;SDS011;4281;45.772;12.852;2023-02-20T16:51:26;44.50;;;36.87;;
8488;SDS011;4281;45.772;12.852;2023-02-20T16:53:56;44.27;;;35.83;;
8488;SDS011;4281;45.772;12.852;2023-02-20T16:56:24;45.70;;;37.43;;
8488;SDS011;4281;45.772;12.852;2023-02-20T16:58:52;45.23;;;38.20;;
8488;SDS011;4281;45.772;12.852;2023-02-20T17:01:19;47.23;;;38.53;;
8488;SDS011;4281;45.772;12.852;2023-02-20T17:03:48;47.70;;;38.47;;
8488;SDS011;4281;45.772;12.852;2023-02-20T17:06:16;47.00;;;37.63;;
8488;SDS011;4281;45.772;12.852;2023-02-20T17:08:45;47.17;;;39.33;;
8488;SDS011;4281;45.772;12.852;2023-02-20T17:11:14;48.07;;;39.57;;
8488;SDS011;4281;45.772;12.852;2023-02-20T17:13:42;51.90;;;41.77;;
8488;SDS011;4281;45.772;12.852;2023-02-20T17:16:10;49.27;;;43.13;;
8488;SDS011;4281;45.772;12.852;2023-02-20T17:18:50;49.83;;;40.10;;
8488;SDS011;4281;45.772;12.852;2023-02-20T17:21:18;47.03;;;39.83;;
8488;SDS011;4281;45.772;12.852;2023-02-20T17:23:46;50.20;;;40.13;;
8488;SDS011;4281;45.772;12.852;2023-02-20T17:26:15;48.40;;;39.90;;
8488;SDS011;4281;45.772;12.852;2023-02-20T17:28:43;49.43;;;40.47;;
8488;SDS011;4281;45.772;12.852;2023-02-20T17:31:11;48.43;;;38.67;;
8488;SDS011;4281;45.772;12.852;2023-02-20T17:33:39;47.97;;;38.90;;
8488;SDS011;4281;45.772;12.852;2023-02-20T17:36:07;47.57;;;38.63;;
8488;SDS011;4281;45.772;12.852;2023-02-20T17:38:36;48.53;;;38.73;;
8488;SDS011;4281;45.772;12.852;2023-02-20T17:41:08;45.73;;;37.60;;
8488;SDS011;4281;45.772;12.852;2023-02-20T17:43:38;47.53;;;38.03;;
8488;SDS011;4281;45.772;12.852;2023-02-20T17:46:05;46.30;;;37.57;;
8488;SDS011;4281;45.772;12.852;2023-02-20T17:48:33;45.93;;;37.43;;
8488;SDS011;4281;45.772;12.852;2023-02-20T17:51:01;46.37;;;37.67;;
8488;SDS011;4281;45.772;12.852;2023-02-20T17:53:29;44.63;;;36.60;;
8488;SDS011;4281;45.772;12.852;2023-02-20T17:55:57;46.73;;;38.37;;
8488;SDS011;4281;45.772;12.852;2023-02-20T17:58:24;49.37;;;40.43;;
8488;SDS011;4281;45.772;12.852;2023-02-20T18:00:54;50.77;;;40.77;;
8488;SDS011;4281;45.772;12.852;2023-02-20T18:03:21;52.80;;;42.20;;
8488;SDS011;4281;45.772;12.852;2023-02-20T18:05:49;50.37;;;40.53;;
8488;SDS011;4281;45.772;12.852;2023-02-20T18:08:17;50.23;;;40.03;;
8488;SDS011;4281;45.772;12.852;2023-02-20T18:10:45;50.30;;;40.37;;
8488;SDS011;4281;45.772;12.852;2023-02-20T18:13:13;52.03;;;41.87;;
8488;SDS011;4281;45.772;12.852;2023-02-20T18:15:40;53.13;;;42.20;;
8488;SDS011;4281;45.772;12.852;2023-02-20T18:18:10;56.40;;;44.10;;
8488;SDS011;4281;45.772;12.852;2023-02-20T18:20:40;54.10;;;43.57;;
8488;SDS011;4281;45.772;12.852;2023-02-20T18:23:07;57.40;;;45.83;;
8488;SDS011;4281;45.772;12.852;2023-02-20T18:25:35;57.17;;;46.50;;
8488;SDS011;4281;45.772;12.852;2023-02-20T18:28:06;57.70;;;46.67;;
8488;SDS011;4281;45.772;12.852;2023-02-20T18:30:35;59.83;;;48.90;;
8488;SDS011;4281;45.772;12.852;2023-02-20T18:33:03;61.27;;;49.00;;
8488;SDS011;4281;45.772;12.852;2023-02-20T18:35:32;55.90;;;45.53;;
8488;SDS011;4281;45.772;12.852;2023-02-20T18:38:00;60.77;;;46.97;;
8488;SDS011;4281;45.772;12.852;2023-02-20T18:40:28;61.37;;;50.50;;
8488;SDS011;4281;45.772;12.852;2023-02-20T18:42:56;61.63;;;49.47;;
8488;SDS011;4281;45.772;12.852;2023-02-20T18:45:24;60.07;;;48.67;;
8488;SDS011;4281;45.772;12.852;2023-02-20T18:47:52;60.27;;;48.23;;
8488;SDS011;4281;45.772;12.852;2023-02-20T18:50:20;63.10;;;49.47;;
8488;SDS011;4281;45.772;12.852;2023-02-20T18:52:49;61.60;;;49.70;;
8488;SDS011;4281;45.772;12.852;2023-02-20T18:55:17;64.80;;;51.13;;
8488;SDS011;4281;45.772;12.852;2023-02-20T18:57:46;63.70;;;49.87;;
8488;SDS011;4281;45.772;12.852;2023-02-20T19:00:15;65.30;;;51.87;;
8488;SDS011;4281;45.772;12.852;2023-02-20T19:02:43;68.30;;;55.13;;
8488;SDS011;4281;45.772;12.852;2023-02-20T19:05:11;67.83;;;54.40;;
8488;SDS011;4281;45.772;12.852;2023-02-20T19:07:40;67.90;;;53.63;;
8488;SDS011;4281;45.772;12.852;2023-02-20T19:10:10;67.00;;;53.50;;
8488;SDS011;4281;45.772;12.852;2023-02-20T19:12:39;68.87;;;53.70;;
8488;SDS011;4281;45.772;12.852;2023-02-20T19:15:07;66.13;;;53.70;;
8488;SDS011;4281;45.772;12.852;2023-02-20T19:17:35;69.63;;;53.70;;
8488;SDS011;4281;45.772;12.852;2023-02-20T19:20:05;66.80;;;53.07;;
8488;SDS011;4281;45.772;12.852;2023-02-20T19:22:34;67.63;;;52.83;;
8488;SDS011;4281;45.772;12.852;2023-02-20T19:25:01;69.57;;;55.30;;
8488;SDS011;4281;45.772;12.852;2023-02-20T19:27:31;71.93;;;55.80;;
8488;SDS011;4281;45.772;12.852;2023-02-20T19:29:59;73.97;;;57.87;;
8488;SDS011;4281;45.772;12.852;2023-02-20T19:32:27;74.10;;;56.40;;
8488;SDS011;4281;45.772;12.852;2023-02-20T19:34:55;74.93;;;59.40;;
8488;SDS011;4281;45.772;12.852;2023-02-20T19:37:22;78.87;;;59.70;;
8488;SDS011;4281;45.772;12.852;2023-02-20T19:39:50;74.87;;;58.13;;
8488;SDS011;4281;45.772;12.852;2023-02-20T19:42:18;76.30;;;59.27;;
8488;SDS011;4281;45.772;12.852;2023-02-20T19:44:47;74.80;;;59.03;;
8488;SDS011;4281;45.772;12.852;2023-02-20T19:47:15;83.30;;;62.80;;
8488;SDS011;4281;45.772;12.852;2023-02-20T19:49:44;82.67;;;63.77;;
8488;SDS011;4281;45.772;12.852;2023-02-20T19:52:12;80.03;;;62.03;;
8488;SDS011;4281;45.772;12.852;2023-02-20T19:54:42;82.50;;;62.87;;
8488;SDS011;4281;45.772;12.852;2023-02-20T19:57:11;84.53;;;66.03;;
8488;SDS011;4281;45.772;12.852;2023-02-20T19:59:39;84.57;;;65.63;;
8488;SDS011;4281;45.772;12.852;2023-02-20T20:02:10;86.47;;;64.93;;
8488;SDS011;4281;45.772;12.852;2023-02-20T20:04:39;83.20;;;62.97;;
8488;SDS011;4281;45.772;12.852;2023-02-20T20:07:07;85.13;;;63.40;;
8488;SDS011;4281;45.772;12.852;2023-02-20T20:09:35;87.70;;;65.23;;
8488;SDS011;4281;45.772;12.852;2023-02-20T20:12:04;87.07;;;64.20;;
8488;SDS011;4281;45.772;12.852;2023-02-20T20:14:54;84.80;;;62.40;;
8488;SDS011;4281;45.772;12.852;2023-02-20T20:17:24;87.50;;;64.97;;
8488;SDS011;4281;45.772;12.852;2023-02-20T20:19:51;84.13;;;64.93;;
8488;SDS011;4281;45.772;12.852;2023-02-20T20:22:26;92.23;;;69.50;;
8488;SDS011;4281;45.772;12.852;2023-02-20T20:24:55;92.77;;;68.53;;
8488;SDS011;4281;45.772;12.852;2023-02-20T20:27:23;88.17;;;65.83;;
8488;SDS011;4281;45.772;12.852;2023-02-20T20:29:50;89.00;;;69.40;;
8488;SDS011;4281;45.772;12.852;2023-02-20T20:32:20;85.53;;;65.17;;
8488;SDS011;4281;45.772;12.852;2023-02-20T20:34:49;84.93;;;66.73;;
8488;SDS011;4281;45.772;12.852;2023-02-20T20:37:20;81.90;;;63.37;;
8488;SDS011;4281;45.772;12.852;2023-02-20T20:39:49;83.63;;;64.50;;
8488;SDS011;4281;45.772;12.852;2023-02-20T20:42:17;85.10;;;65.20;;
8488;SDS011;4281;45.772;12.852;2023-02-20T20:44:50;83.57;;;63.63;;
8488;SDS011;4281;45.772;12.852;2023-02-20T20:47:18;87.00;;;64.60;;
8488;SDS011;4281;45.772;12.852;2023-02-20T20:49:46;83.10;;;64.70;;
8488;SDS011;4281;45.772;12.852;2023-02-20T20:52:16;84.07;;;62.90;;
8488;SDS011;4281;45.772;12.852;2023-02-20T20:54:46;82.80;;;63.77;;
8488;SDS011;4281;45.772;12.852;2023-02-20T20:57:15;82.53;;;62.57;;
8488;SDS011;4281;45.772;12.852;2023-02-20T20:59:43;77.90;;;57.90;;
8488;SDS011;4281;45.772;12.852;2023-02-20T21:02:12;77.93;;;59.60;;
8488;SDS011;4281;45.772;12.852;2023-02-20T21:04:40;79.10;;;58.57;;
8488;SDS011;4281;45.772;12.852;2023-02-20T21:07:08;79.17;;;59.10;;
8488;SDS011;4281;45.772;12.852;2023-02-20T21:09:37;77.03;;;57.20;;
8488;SDS011;4281;45.772;12.852;2023-02-20T21:12:05;78.57;;;57.97;;
8488;SDS011;4281;45.772;12.852;2023-02-20T21:14:33;76.30;;;57.07;;
8488;SDS011;4281;45.772;12.852;2023-02-20T21:17:05;74.47;;;55.43;;
8488;SDS011;4281;45.772;12.852;2023-02-20T21:19:33;75.33;;;55.73;;
8488;SDS011;4281;45.772;12.852;2023-02-20T21:22:02;75.27;;;56.43;;
8488;SDS011;4281;45.772;12.852;2023-02-20T21:24:30;75.57;;;55.30;;
8488;SDS011;4281;45.772;12.852;2023-02-20T21:27:02;71.23;;;54.30;;
8488;SDS011;4281;45.772;12.852;2023-02-20T21:29:30;73.37;;;56.63;;
8488;SDS011;4281;45.772;12.852;2023-02-20T21:32:01;71.30;;;53.43;;
8488;SDS011;4281;45.772;12.852;2023-02-20T21:34:29;71.77;;;54.70;;
8488;SDS011;4281;45.772;12.852;2023-02-20T21:36:57;73.60;;;55.87;;
8488;SDS011;4281;45.772;12.852;2023-02-20T21:39:25;75.63;;;56.70;;
8488;SDS011;4281;45.772;12.852;2023-02-20T21:41:53;74.20;;;56.20;;
8488;SDS011;4281;45.772;12.852;2023-02-20T21:44:39;72.37;;;55.10;;
8488;SDS011;4281;45.772;12.852;2023-02-20T21:47:13;74.60;;;58.03;;
8488;SDS011;4281;45.772;12.852;2023-02-20T21:49:42;71.53;;;55.13;;
8488;SDS011;4281;45.772;12.852;2023-02-20T21:52:11;73.87;;;57.63;;
8488;SDS011;4281;45.772;12.852;2023-02-20T21:54:40;73.47;;;55.87;;
8488;SDS011;4281;45.772;12.852;2023-02-20T21:57:08;73.97;;;56.53;;
8488;SDS011;4281;45.772;12.852;2023-02-20T21:59:36;72.97;;;56.00;;
8488;SDS011;4281;45.772;12.852;2023-02-20T22:02:04;72.00;;;55.50;;
8488;SDS011;4281;45.772;12.852;2023-02-20T22:04:30;71.57;;;54.60;;
8488;SDS011;4281;45.772;12.852;2023-02-20T22:06:57;73.57;;;57.33;;
8488;SDS011;4281;45.772;12.852;2023-02-20T22:09:43;72.47;;;56.30;;
8488;SDS011;4281;45.772;12.852;2023-02-20T22:12:28;67.77;;;53.83;;
8488;SDS011;4281;45.772;12.852;2023-02-20T22:15:14;69.10;;;51.87;;
8488;SDS011;4281;45.772;12.852;2023-02-20T22:18:00;66.30;;;50.10;;
8488;SDS011;4281;45.772;12.852;2023-02-20T22:20:46;72.30;;;52.63;;
8488;SDS011;4281;45.772;12.852;2023-02-20T22:23:31;66.70;;;51.03;;
8488;SDS011;4281;45.772;12.852;2023-02-20T22:26:16;67.67;;;51.27;;
8488;SDS011;4281;45.772;12.852;2023-02-20T22:29:03;69.13;;;52.93;;
8488;SDS011;4281;45.772;12.852;2023-02-20T22:31:48;65.07;;;50.60;;
8488;SDS011;4281;45.772;12.852;2023-02-20T22:34:35;71.87;;;53.03;;
8488;SDS011;4281;45.772;12.852;2023-02-20T22:37:35;66.90;;;50.63;;
8488;SDS011;4281;45.772;12.852;2023-02-20T22:40:21;65.50;;;48.80;;
8488;SDS011;4281;45.772;12.852;2023-02-20T22:43:06;59.90;;;47.50;;
8488;SDS011;4281;45.772;12.852;2023-02-20T22:45:51;58.37;;;46.60;;